createdAt,value
2022-11-10T00:00:06.791Z,8.50
2022-11-10T00:02:32.990Z,7.28
2022-11-10T00:04:59.299Z,7.97
2022-11-10T00:07:26.254Z,6.45
2022-11-10T00:09:52.693Z,6.05
2022-11-10T00:12:19.367Z,6.53
2022-11-10T00:15:04.291Z,8.48
2022-11-10T00:17:30.565Z,8.88
2022-11-10T00:19:57.137Z,6.45
2022-11-10T00:22:26.067Z,8.05
2022-11-10T00:24:52.562Z,6.45
2022-11-10T00:27:18.785Z,9.40
2022-11-10T00:29:44.985Z,9.48
2022-11-10T00:32:11.173Z,7.82
2022-11-10T00:34:37.467Z,9.02
2022-11-10T00:37:03.834Z,6.13
2022-11-10T00:39:30.069Z,8.10
2022-11-10T00:41:56.666Z,4.13
2022-11-10T00:44:22.892Z,8.60
2022-11-10T00:46:49.081Z,8.20
2022-11-10T00:49:15.309Z,8.43
2022-11-10T00:51:41.526Z,6.20
2022-11-10T00:54:07.967Z,7.60
2022-11-10T00:56:34.291Z,8.85
2022-11-10T00:59:00.545Z,7.82
2022-11-10T01:01:26.908Z,7.20
2022-11-10T01:03:53.654Z,6.78
2022-11-10T01:06:20.495Z,7.68
2022-11-10T01:08:46.875Z,6.32
2022-11-10T01:11:14.339Z,6.68
2022-11-10T01:13:41.028Z,8.00
2022-11-10T01:16:08.235Z,10.60
2022-11-10T01:18:34.883Z,7.97
2022-11-10T01:21:01.173Z,8.43
2022-11-10T01:23:27.509Z,11.55
2022-11-10T01:25:56.964Z,12.27
2022-11-10T01:28:23.207Z,8.95
2022-11-10T01:30:49.440Z,7.68
2022-11-10T01:33:17.602Z,7.63
2022-11-10T01:35:43.800Z,14.35
2022-11-10T01:38:10.008Z,7.82
2022-11-10T01:40:36.304Z,8.13
2022-11-10T01:43:02.523Z,8.35
2022-11-10T01:45:40.599Z,8.30
2022-11-10T01:48:07.476Z,10.07
2022-11-10T01:50:36.325Z,8.30
2022-11-10T01:53:04.709Z,8.60
2022-11-10T01:55:31.845Z,8.65
2022-11-10T01:57:58.103Z,10.85
2022-11-10T02:00:24.514Z,10.20
2022-11-10T02:02:54.210Z,11.48
2022-11-10T02:05:22.668Z,10.60
2022-11-10T02:07:50.850Z,8.73
2022-11-10T02:10:19.197Z,7.35
2022-11-10T02:12:45.910Z,6.57
2022-11-10T02:15:13.979Z,10.65
2022-11-10T02:17:40.559Z,8.50
2022-11-10T02:20:09.965Z,10.73
2022-11-10T02:22:36.816Z,12.65
2022-11-10T02:25:03.300Z,9.02
2022-11-10T02:27:30.714Z,7.82
2022-11-10T02:29:58.544Z,6.75
2022-11-10T02:32:24.810Z,8.95
2022-11-10T02:34:50.997Z,10.05
2022-11-10T02:37:17.339Z,11.32
2022-11-10T02:39:43.550Z,13.18
2022-11-10T02:42:10.284Z,12.85
2022-11-10T02:44:37.546Z,7.32
2022-11-10T02:47:03.784Z,7.70
2022-11-10T02:49:29.995Z,11.32
2022-11-10T02:51:56.470Z,8.70
2022-11-10T02:54:22.838Z,11.85
2022-11-10T02:56:49.118Z,17.70
2022-11-10T02:59:15.386Z,14.05
2022-11-10T03:01:41.637Z,12.23
2022-11-10T03:04:08.370Z,9.60
2022-11-10T03:06:34.608Z,13.05
2022-11-10T03:09:00.977Z,8.98
2022-11-10T03:11:31.938Z,7.43
2022-11-10T03:14:01.949Z,7.90
2022-11-10T03:16:28.698Z,10.45
2022-11-10T03:18:54.917Z,6.13
2022-11-10T03:21:21.152Z,6.07
2022-11-10T03:23:47.335Z,8.48
2022-11-10T03:26:14.250Z,9.73
2022-11-10T03:28:40.443Z,10.60
2022-11-10T03:31:06.661Z,13.85
2022-11-10T03:33:32.849Z,13.75
2022-11-10T03:35:59.062Z,10.10
2022-11-10T03:38:25.267Z,11.02
2022-11-10T03:41:17.751Z,11.45
2022-11-10T03:43:37.750Z,10.40
2022-11-10T03:46:03.975Z,9.25
2022-11-10T03:48:30.360Z,12.18
2022-11-10T03:50:56.543Z,9.77
2022-11-10T03:53:23.170Z,11.50
2022-11-10T03:55:49.681Z,11.77
2022-11-10T03:58:15.924Z,9.90
2022-11-10T04:00:42.128Z,13.18
2022-11-10T04:03:08.362Z,6.25
2022-11-10T04:05:53.123Z,11.05
2022-11-10T04:08:38.350Z,11.07
2022-11-10T04:11:04.567Z,11.20
2022-11-10T04:13:49.636Z,11.38
2022-11-10T04:16:15.846Z,8.98
2022-11-10T04:18:42.220Z,9.90
2022-11-10T04:21:08.599Z,11.98
2022-11-10T04:23:35.898Z,8.38
2022-11-10T04:26:22.323Z,7.53
2022-11-10T04:28:49.788Z,11.20
2022-11-10T04:31:16.664Z,16.45
2022-11-10T04:33:43.220Z,10.73
2022-11-10T04:36:10.266Z,11.35
2022-11-10T04:38:36.678Z,13.82
2022-11-10T04:41:03.427Z,8.48
2022-11-10T04:43:30.049Z,8.30
2022-11-10T04:45:56.581Z,11.98
2022-11-10T04:48:23.178Z,9.43
2022-11-10T04:50:49.432Z,10.02
2022-11-10T04:53:15.755Z,13.18
2022-11-10T04:55:42.591Z,10.30
2022-11-10T04:58:09.111Z,10.45
2022-11-10T05:00:35.939Z,9.32
2022-11-10T05:03:03.830Z,12.50
2022-11-10T05:05:30.539Z,12.07
2022-11-10T05:07:56.866Z,16.40
2022-11-10T05:10:23.303Z,11.95
2022-11-10T05:12:49.513Z,6.60
2022-11-10T05:15:15.850Z,13.52
2022-11-10T05:17:42.063Z,7.15
2022-11-10T05:20:08.614Z,8.75
2022-11-10T05:22:34.848Z,10.93
2022-11-10T05:25:01.066Z,11.32
2022-11-10T05:27:27.332Z,11.30
2022-11-10T05:29:53.699Z,9.05
2022-11-10T05:32:19.882Z,16.55
2022-11-10T05:34:46.122Z,9.43
2022-11-10T05:37:12.306Z,13.98
2022-11-10T05:39:38.493Z,13.27
2022-11-10T05:42:04.888Z,12.00
2022-11-10T05:44:31.147Z,14.18
2022-11-10T05:46:57.347Z,15.00
2022-11-10T05:49:23.570Z,11.90
2022-11-10T05:51:49.782Z,10.90
2022-11-10T05:54:15.994Z,12.05
2022-11-10T05:56:42.181Z,10.18
2022-11-10T05:59:08.401Z,14.63
2022-11-10T06:01:34.624Z,16.55
2022-11-10T06:04:00.907Z,13.13
2022-11-10T06:06:27.362Z,17.25
2022-11-10T06:08:53.636Z,13.00
2022-11-10T06:11:20.394Z,10.13
2022-11-10T06:13:46.634Z,13.30
2022-11-10T06:16:12.887Z,10.77
2022-11-10T06:18:39.071Z,14.70
2022-11-10T06:21:05.372Z,12.35
2022-11-10T06:23:31.561Z,11.35
2022-11-10T06:25:57.800Z,10.90
2022-11-10T06:28:24.011Z,9.00
2022-11-10T06:30:50.388Z,9.73
2022-11-10T06:33:16.628Z,12.15
2022-11-10T06:35:42.851Z,13.18
2022-11-10T06:38:10.135Z,9.77
2022-11-10T06:40:36.339Z,15.98
2022-11-10T06:43:02.842Z,11.18
2022-11-10T06:45:29.246Z,13.38
2022-11-10T06:47:59.117Z,10.68
2022-11-10T06:50:25.375Z,13.43
2022-11-10T06:52:55.234Z,13.25
2022-11-10T06:55:21.583Z,13.00
2022-11-10T06:57:47.829Z,11.30
2022-11-10T07:00:15.064Z,14.00
2022-11-10T07:02:41.300Z,14.50
2022-11-10T07:05:07.637Z,13.32
2022-11-10T07:07:33.942Z,19.80
2022-11-10T07:10:05.682Z,18.27
2022-11-10T07:12:33.157Z,10.90
2022-11-10T07:14:59.374Z,15.65
2022-11-10T07:17:25.587Z,10.85
2022-11-10T07:19:51.884Z,14.68
2022-11-10T07:22:18.176Z,17.08
2022-11-10T07:24:44.374Z,27.70
2022-11-10T07:27:10.561Z,29.05
2022-11-10T07:29:36.798Z,29.33
2022-11-10T07:32:03.201Z,13.20
2022-11-10T07:34:29.740Z,18.40
2022-11-10T07:36:55.933Z,26.17
2022-11-10T07:39:22.132Z,25.75
2022-11-10T07:41:52.419Z,52.53
2022-11-10T07:44:19.118Z,42.75
2022-11-10T07:46:45.343Z,35.85
2022-11-10T07:49:11.728Z,52.88
2022-11-10T07:51:37.920Z,43.70
2022-11-10T07:54:04.144Z,59.80
2022-11-10T07:56:30.333Z,34.97
2022-11-10T07:58:56.538Z,24.85
2022-11-10T08:01:22.830Z,23.80
2022-11-10T08:03:49.054Z,26.10
2022-11-10T08:06:15.358Z,37.13
2022-11-10T08:08:41.610Z,50.05
2022-11-10T08:11:07.836Z,37.47
2022-11-10T08:13:34.106Z,26.15
2022-11-10T08:16:00.419Z,19.30
2022-11-10T08:18:30.875Z,24.75
2022-11-10T08:21:00.684Z,27.33
2022-11-10T08:23:28.512Z,28.33
2022-11-10T08:25:57.616Z,23.15
2022-11-10T08:28:23.847Z,30.13
2022-11-10T08:30:50.238Z,60.22
2022-11-10T08:33:17.946Z,22.27
2022-11-10T08:35:45.249Z,18.88
2022-11-10T08:38:12.446Z,20.60
2022-11-10T08:40:39.187Z,24.52
2022-11-10T08:43:08.919Z,18.77
2022-11-10T08:45:36.042Z,23.05
2022-11-10T08:48:03.622Z,13.90
2022-11-10T08:50:29.856Z,27.85
2022-11-10T08:52:56.167Z,20.33
2022-11-10T08:55:22.643Z,16.38
2022-11-10T08:57:48.923Z,12.77
2022-11-10T09:00:16.030Z,21.70
2022-11-10T09:02:42.243Z,16.35
2022-11-10T09:05:08.692Z,19.52
2022-11-10T09:07:42.433Z,34.67
2022-11-10T09:10:08.833Z,12.93
2022-11-10T09:12:36.239Z,17.55
2022-11-10T09:15:02.600Z,17.38
2022-11-10T09:17:28.832Z,17.95
2022-11-10T09:19:55.153Z,13.15
2022-11-10T09:22:21.367Z,16.13
2022-11-10T09:24:47.567Z,14.02
2022-11-10T09:27:13.790Z,10.70
2022-11-10T09:29:39.995Z,18.63
2022-11-10T09:32:06.209Z,9.80
2022-11-10T09:34:32.397Z,11.73
2022-11-10T09:36:58.599Z,10.18
2022-11-10T09:39:24.789Z,13.32
2022-11-10T09:41:51.079Z,12.95
2022-11-10T09:44:36.310Z,14.30
2022-11-10T09:47:42.396Z,19.50
2022-11-10T09:50:06.538Z,9.15
2022-11-10T09:52:34.138Z,11.13
2022-11-10T09:55:13.426Z,13.13
2022-11-10T09:57:40.963Z,12.00
2022-11-10T10:00:10.213Z,14.98
2022-11-10T10:02:39.615Z,10.20
2022-11-10T10:05:28.442Z,9.45
2022-11-10T10:08:05.658Z,11.52
2022-11-10T10:10:44.987Z,11.15
2022-11-10T10:13:31.363Z,11.98
2022-11-10T10:16:09.567Z,8.60
2022-11-10T10:18:43.326Z,10.45
2022-11-10T10:21:15.421Z,11.93
2022-11-10T10:24:08.333Z,8.38
2022-11-10T10:26:38.126Z,9.30
2022-11-10T10:29:09.568Z,10.48
2022-11-10T10:31:40.167Z,7.90
2022-11-10T10:34:13.997Z,6.43
2022-11-10T10:36:40.241Z,9.55
2022-11-10T10:39:10.462Z,9.95
2022-11-10T10:41:37.097Z,6.68
2022-11-10T10:44:09.719Z,10.00
2022-11-10T10:47:11.417Z,8.00
2022-11-10T10:52:11.059Z,7.80
2022-11-10T10:54:38.164Z,8.27
2022-11-10T10:57:24.662Z,6.97
2022-11-10T10:59:51.520Z,7.65
2022-11-10T11:02:20.792Z,6.25
2022-11-10T11:04:47.008Z,5.38
2022-11-10T11:07:20.823Z,9.82
2022-11-10T11:09:47.034Z,5.78
2022-11-10T11:12:25.283Z,8.00
2022-11-10T11:14:51.787Z,9.15
2022-11-10T11:17:19.249Z,11.77
2022-11-10T11:19:45.612Z,10.40
2022-11-10T11:22:24.554Z,9.75
2022-11-10T11:25:02.732Z,6.70
2022-11-10T11:27:47.183Z,5.93
2022-11-10T11:30:15.707Z,7.13
2022-11-10T11:32:42.013Z,7.57
2022-11-10T11:35:27.112Z,12.07
2022-11-10T11:37:53.285Z,9.27
2022-11-10T11:40:38.124Z,10.60
2022-11-10T11:43:07.085Z,9.68
2022-11-10T11:45:51.907Z,5.82
2022-11-10T11:48:34.638Z,5.60
2022-11-10T11:51:05.387Z,6.43
2022-11-10T11:53:31.626Z,8.20
2022-11-10T11:56:03.962Z,5.88
2022-11-10T11:58:53.257Z,7.85
2022-11-10T12:01:34.630Z,8.02
2022-11-10T12:04:19.786Z,7.00
2022-11-10T12:06:52.109Z,6.28
2022-11-10T12:09:36.476Z,6.85
2022-11-10T12:12:22.935Z,7.22
2022-11-10T12:14:53.911Z,9.35
2022-11-10T12:17:27.061Z,5.55
2022-11-10T12:19:56.601Z,7.93
2022-11-10T12:22:42.854Z,7.90
2022-11-10T12:25:16.200Z,10.15
2022-11-10T12:28:05.921Z,6.60
2022-11-10T12:30:32.796Z,6.93
2022-11-10T12:33:04.323Z,6.68
2022-11-10T12:35:41.301Z,6.65
2022-11-10T12:38:11.810Z,3.58
2022-11-10T12:40:47.375Z,3.78
2022-11-10T12:43:29.400Z,10.45
2022-11-10T12:45:59.681Z,7.38
2022-11-10T12:48:26.997Z,5.80
2022-11-10T12:50:55.173Z,8.05
2022-11-10T12:53:23.327Z,7.30
2022-11-10T12:55:52.667Z,5.32
2022-11-10T12:58:19.669Z,3.45
2022-11-10T13:00:55.355Z,5.30
2022-11-10T13:03:30.178Z,5.25
2022-11-10T13:06:01.090Z,5.85
2022-11-10T13:08:42.659Z,4.82
2022-11-10T13:11:11.894Z,6.13
2022-11-10T13:13:45.309Z,5.93
2022-11-10T13:16:31.478Z,4.57
2022-11-10T13:18:57.694Z,5.60
2022-11-10T13:21:42.880Z,6.18
2022-11-10T13:24:18.798Z,4.32
2022-11-10T13:26:44.973Z,3.45
2022-11-10T13:29:32.080Z,4.70
2022-11-10T13:32:07.256Z,6.22
2022-11-10T13:34:37.470Z,5.28
2022-11-10T13:37:23.919Z,6.30
2022-11-10T13:39:50.200Z,4.43
2022-11-10T13:42:18.641Z,5.22
2022-11-10T13:44:48.159Z,4.68
2022-11-10T13:47:37.483Z,3.80
2022-11-10T13:50:22.269Z,4.30
2022-11-10T13:53:06.545Z,3.88
2022-11-10T13:55:45.983Z,3.13
2022-11-10T13:58:17.615Z,3.63
2022-11-10T14:00:47.961Z,3.03
2022-11-10T14:03:49.553Z,4.30
2022-11-10T14:06:23.932Z,4.88
2022-11-10T14:08:59.146Z,4.10
2022-11-10T14:11:28.260Z,3.63
2022-11-10T14:13:56.798Z,3.33
2022-11-10T14:16:25.574Z,4.35
2022-11-10T14:19:03.044Z,4.35
2022-11-10T14:21:32.635Z,2.30
2022-11-10T14:24:04.133Z,4.35
2022-11-10T14:26:33.959Z,3.08
2022-11-10T14:29:18.724Z,5.03
2022-11-10T14:31:45.027Z,2.88
2022-11-10T14:34:17.487Z,5.28
2022-11-10T14:37:10.028Z,3.05
2022-11-10T14:39:36.324Z,2.80
2022-11-10T14:42:04.074Z,3.22
2022-11-10T14:44:31.609Z,6.57
2022-11-10T14:47:12.703Z,5.43
2022-11-10T14:49:38.896Z,2.15
2022-11-10T14:52:05.219Z,4.03
2022-11-10T14:54:31.518Z,2.33
2022-11-10T14:56:57.760Z,3.85
2022-11-10T14:59:24.538Z,6.57
2022-11-10T15:01:54.943Z,1.90
2022-11-10T15:04:24.229Z,2.47
2022-11-10T15:06:51.615Z,2.42
2022-11-10T15:09:23.321Z,4.68
2022-11-10T15:11:56.806Z,4.05
2022-11-10T15:14:32.575Z,4.90
2022-11-10T15:17:17.807Z,4.20
2022-11-10T15:19:43.991Z,3.00
2022-11-10T15:22:17.988Z,4.47
2022-11-10T15:24:45.265Z,5.47
2022-11-10T15:27:25.627Z,5.10
2022-11-10T15:29:53.193Z,3.88
2022-11-10T15:32:21.243Z,6.00
2022-11-10T15:34:47.783Z,5.55
2022-11-10T15:37:30.038Z,5.18
2022-11-10T15:40:15.941Z,5.60
2022-11-10T15:42:42.168Z,5.25
2022-11-10T15:45:08.754Z,4.88
2022-11-10T15:47:35.018Z,4.28
2022-11-10T15:50:01.734Z,5.40
2022-11-10T15:52:28.038Z,4.68
2022-11-10T15:54:54.230Z,6.72
2022-11-10T15:57:20.472Z,7.30
2022-11-10T15:59:46.734Z,5.82
2022-11-10T16:02:22.008Z,5.60
2022-11-10T16:04:49.436Z,5.25
2022-11-10T16:07:15.762Z,5.90
2022-11-10T16:09:42.067Z,4.82
2022-11-10T16:12:13.347Z,6.93
2022-11-10T16:14:39.703Z,7.28
2022-11-10T16:17:05.983Z,9.75
2022-11-10T16:19:32.185Z,6.43
2022-11-10T16:21:58.433Z,4.75
2022-11-10T16:24:24.665Z,4.32
2022-11-10T16:26:50.872Z,4.18
2022-11-10T16:29:17.657Z,7.15
2022-11-10T16:31:43.856Z,5.32
2022-11-10T16:34:12.074Z,7.72
2022-11-10T16:36:38.846Z,7.72
2022-11-10T16:39:10.757Z,5.22
2022-11-10T16:41:37.015Z,6.90
2022-11-10T16:44:03.624Z,8.98
2022-11-10T16:46:30.164Z,5.78
2022-11-10T16:48:58.069Z,8.25
2022-11-10T16:51:26.711Z,7.93
2022-11-10T16:53:52.998Z,8.52
2022-11-10T16:56:20.934Z,9.10
2022-11-10T16:58:47.334Z,8.60
2022-11-10T17:01:17.056Z,11.70
2022-11-10T17:03:44.550Z,8.40
2022-11-10T17:06:13.479Z,6.47
2022-11-10T17:08:40.362Z,9.00
2022-11-10T17:11:07.036Z,8.45
2022-11-10T17:13:33.499Z,7.95
2022-11-10T17:16:35.208Z,10.77
2022-11-10T17:19:01.973Z,6.25
2022-11-10T17:21:32.890Z,11.02
2022-11-10T17:23:59.874Z,6.93
2022-11-10T17:26:26.195Z,7.13
2022-11-10T17:28:52.398Z,7.75
2022-11-10T17:31:18.591Z,5.95
2022-11-10T17:33:44.889Z,10.65
2022-11-10T17:36:16.976Z,5.85
2022-11-10T17:38:43.508Z,7.95
2022-11-10T17:41:16.572Z,6.70
2022-11-10T17:43:45.795Z,7.28
2022-11-10T17:46:12.860Z,6.30
2022-11-10T17:48:39.343Z,6.35
2022-11-10T17:51:06.039Z,6.35
2022-11-10T17:53:32.328Z,6.63
2022-11-10T17:55:58.570Z,5.57
2022-11-10T17:58:24.851Z,6.65
2022-11-10T18:00:51.078Z,6.90
2022-11-10T18:03:18.707Z,6.10
2022-11-10T18:05:45.326Z,5.80
2022-11-10T18:08:12.462Z,4.75
2022-11-10T18:10:42.689Z,5.38
2022-11-10T18:13:09.394Z,6.95
2022-11-10T18:15:35.862Z,6.97
2022-11-10T18:18:02.126Z,7.40
2022-11-10T18:20:28.419Z,6.85
2022-11-10T18:22:54.762Z,6.38
2022-11-10T18:25:21.016Z,15.55
2022-11-10T18:27:47.201Z,12.43
2022-11-10T18:30:14.393Z,8.98
2022-11-10T18:32:40.665Z,7.68
2022-11-10T18:35:07.122Z,8.63
2022-11-10T18:37:37.991Z,10.73
2022-11-10T18:40:05.668Z,4.63
2022-11-10T18:42:34.234Z,7.82
2022-11-10T18:45:00.604Z,7.18
2022-11-10T18:47:26.869Z,5.55
2022-11-10T18:49:53.225Z,7.80
2022-11-10T18:52:19.639Z,9.98
2022-11-10T18:54:45.919Z,8.07
2022-11-10T18:57:13.187Z,8.13
2022-11-10T18:59:39.432Z,9.82
2022-11-10T19:02:05.680Z,7.03
2022-11-10T19:04:31.931Z,7.65
2022-11-10T19:06:58.336Z,6.22
2022-11-10T19:09:24.636Z,8.63
2022-11-10T19:11:50.892Z,7.18
2022-11-10T19:14:17.278Z,7.35
2022-11-10T19:16:43.625Z,7.68
2022-11-10T19:19:10.797Z,9.23
2022-11-10T19:21:37.262Z,7.38
2022-11-10T19:24:03.663Z,9.23
2022-11-10T19:26:29.966Z,7.93
2022-11-10T19:28:56.632Z,8.45
2022-11-10T19:31:23.484Z,9.27
2022-11-10T19:33:52.555Z,9.88
2022-11-10T19:36:19.930Z,9.57
2022-11-10T19:38:46.525Z,6.45
2022-11-10T19:41:14.211Z,9.07
2022-11-10T19:43:43.616Z,10.35
2022-11-10T19:46:15.247Z,7.20
2022-11-10T19:48:41.846Z,8.88
2022-11-10T19:51:09.218Z,8.88
2022-11-10T19:53:35.469Z,8.57
2022-11-10T19:56:03.619Z,9.10
2022-11-10T19:58:30.589Z,8.65
2022-11-10T20:01:00.112Z,6.82
2022-11-10T20:03:28.166Z,9.13
2022-11-10T20:06:01.423Z,9.52
2022-11-10T20:08:27.883Z,8.50
2022-11-10T20:10:54.154Z,10.50
2022-11-10T20:13:20.928Z,11.18
2022-11-10T20:15:47.440Z,10.45
2022-11-10T20:18:13.939Z,11.73
2022-11-10T20:20:40.685Z,9.30
2022-11-10T20:23:09.198Z,8.32
2022-11-10T20:25:35.649Z,9.32
2022-11-10T20:28:04.580Z,10.25
2022-11-10T20:30:31.071Z,7.32
2022-11-10T20:32:57.326Z,9.73
2022-11-10T20:35:23.578Z,8.85
2022-11-10T20:37:49.798Z,9.18
2022-11-10T20:40:42.316Z,11.07
2022-11-10T20:43:02.297Z,10.27
2022-11-10T20:45:31.554Z,10.57
2022-11-10T20:47:59.003Z,10.23
2022-11-10T20:50:25.393Z,10.88
2022-11-10T20:52:51.684Z,9.32
2022-11-10T20:55:18.410Z,8.57
2022-11-10T20:57:45.006Z,9.73
2022-11-10T21:00:11.482Z,12.95
2022-11-10T21:02:37.690Z,10.52
2022-11-10T21:05:04.017Z,12.07
2022-11-10T21:07:30.383Z,15.07
2022-11-10T21:09:56.734Z,16.08
2022-11-10T21:12:41.439Z,10.90
2022-11-10T21:15:07.822Z,14.05
2022-11-10T21:17:34.096Z,13.20
2022-11-10T21:20:00.382Z,10.77
2022-11-10T21:22:26.680Z,11.30
2022-11-10T21:24:52.898Z,9.90
2022-11-10T21:27:19.507Z,11.10
2022-11-10T21:29:46.305Z,11.68
2022-11-10T21:32:12.551Z,11.85
2022-11-10T21:34:38.826Z,8.75
2022-11-10T21:37:05.063Z,10.63
2022-11-10T21:39:31.263Z,8.23
2022-11-10T21:41:57.658Z,12.30
2022-11-10T21:44:24.645Z,13.07
2022-11-10T21:46:51.017Z,10.20
2022-11-10T21:49:17.315Z,11.60
2022-11-10T21:51:43.571Z,10.32
2022-11-10T21:54:09.975Z,14.98
2022-11-10T21:56:36.290Z,11.15
2022-11-10T21:59:02.508Z,9.50
2022-11-10T22:01:28.831Z,11.77
2022-11-10T22:03:55.240Z,9.45
2022-11-10T22:06:21.967Z,12.75
2022-11-10T22:08:48.422Z,10.60
2022-11-10T22:11:34.466Z,12.10
2022-11-10T22:14:36.200Z,9.25
2022-11-10T22:17:21.137Z,11.07
2022-11-10T22:19:47.893Z,12.93
2022-11-10T22:22:14.240Z,10.18
2022-11-10T22:24:40.600Z,10.38
2022-11-10T22:27:08.089Z,9.10
2022-11-10T22:29:34.490Z,12.10
2022-11-10T22:32:00.936Z,10.73
2022-11-10T22:34:27.167Z,12.90
2022-11-10T22:36:56.178Z,9.98
2022-11-10T22:39:22.422Z,12.30
2022-11-10T22:42:07.243Z,10.30
2022-11-10T22:44:33.549Z,9.63
2022-11-10T22:46:59.749Z,10.38
2022-11-10T22:49:25.999Z,8.35
2022-11-10T22:51:52.871Z,11.55
2022-11-10T22:54:20.327Z,9.48
2022-11-10T22:56:50.841Z,10.93
2022-11-10T22:59:17.569Z,14.82
2022-11-10T23:01:44.248Z,11.40
2022-11-10T23:04:11.211Z,10.07
2022-11-10T23:06:37.511Z,12.55
2022-11-10T23:09:04.178Z,12.00
2022-11-10T23:11:31.196Z,12.07
2022-11-10T23:13:57.750Z,12.00
2022-11-10T23:16:32.405Z,15.52
2022-11-10T23:18:58.945Z,11.18
2022-11-10T23:21:26.611Z,10.40
2022-11-10T23:23:53.677Z,13.60
2022-11-10T23:26:21.021Z,12.50
2022-11-10T23:28:47.297Z,11.43
2022-11-10T23:31:14.777Z,10.27
2022-11-10T23:33:41.635Z,8.30
2022-11-10T23:36:09.337Z,9.95
2022-11-10T23:38:36.141Z,10.55
2022-11-10T23:41:02.981Z,12.55
2022-11-10T23:43:29.861Z,10.90
2022-11-10T23:46:12.099Z,12.55
2022-11-10T23:48:38.869Z,11.77
2022-11-10T23:51:05.736Z,13.25
2022-11-10T23:53:32.375Z,15.68
2022-11-10T23:55:59.516Z,11.85
2022-11-10T23:58:25.755Z,15.27
